createdAt,value
2022-11-14T00:00:58.973Z,22.20
2022-11-14T00:03:46.306Z,19.33
2022-11-14T00:06:35.038Z,23.08
2022-11-14T00:09:26.333Z,23.00
2022-11-14T00:12:13.835Z,22.25
2022-11-14T00:15:00.705Z,19.83
2022-11-14T00:17:47.506Z,23.05
2022-11-14T00:20:34.762Z,20.23
2022-11-14T00:23:23.331Z,19.05
2022-11-14T00:26:10.305Z,18.70
2022-11-14T00:28:57.489Z,18.25
2022-11-14T00:31:44.665Z,19.48
2022-11-14T00:34:31.961Z,18.17
2022-11-14T00:37:19.204Z,16.50
2022-11-14T00:40:08.967Z,18.85
2022-11-14T00:42:56.010Z,18.38
2022-11-14T00:45:44.539Z,18.88
2022-11-14T00:48:31.899Z,18.30
2022-11-14T00:51:19.016Z,18.30
2022-11-14T00:54:06.240Z,19.10
2022-11-14T00:56:54.526Z,19.80
2022-11-14T00:59:41.654Z,20.13
2022-11-14T01:02:28.760Z,19.73
2022-11-14T01:05:15.862Z,23.52
2022-11-14T01:08:02.792Z,21.83
2022-11-14T01:10:52.025Z,20.27
2022-11-14T01:13:41.154Z,22.15
2022-11-14T01:16:28.253Z,22.00
2022-11-14T01:19:15.119Z,23.13
2022-11-14T01:22:06.293Z,20.90
2022-11-14T01:24:55.215Z,15.85
2022-11-14T01:27:42.147Z,18.20
2022-11-14T01:30:30.405Z,24.80
2022-11-14T01:33:17.542Z,21.38
2022-11-14T01:36:04.766Z,20.35
2022-11-14T01:38:53.742Z,23.27
2022-11-14T01:41:41.113Z,21.15
2022-11-14T01:44:46.426Z,22.77
2022-11-14T01:47:34.858Z,21.13
2022-11-14T01:50:21.785Z,24.73
2022-11-14T01:53:08.547Z,21.42
2022-11-14T01:55:57.835Z,22.13
2022-11-14T01:58:48.410Z,24.00
2022-11-14T02:01:38.574Z,23.77
2022-11-14T02:04:29.678Z,16.10
2022-11-14T02:07:16.931Z,21.63
2022-11-14T02:10:09.776Z,29.08
2022-11-14T02:12:56.764Z,27.10
2022-11-14T02:15:44.128Z,23.88
2022-11-14T02:18:31.498Z,29.13
2022-11-14T02:21:20.250Z,30.00
2022-11-14T02:24:10.594Z,25.40
2022-11-14T02:29:44.684Z,26.00
2022-11-14T02:32:45.029Z,23.17
2022-11-14T02:35:38.726Z,29.45
2022-11-14T02:38:27.291Z,16.88
2022-11-14T02:41:14.352Z,21.23
2022-11-14T02:44:01.211Z,23.08
2022-11-14T02:46:48.350Z,23.20
2022-11-14T02:49:35.808Z,21.42
2022-11-14T02:52:22.984Z,20.98
2022-11-14T02:55:11.785Z,19.05
2022-11-14T02:57:58.943Z,24.15
2022-11-14T03:01:13.714Z,23.77
2022-11-14T03:03:53.292Z,21.40
2022-11-14T03:06:40.107Z,20.75
2022-11-14T03:09:27.143Z,17.20
2022-11-14T03:12:18.991Z,22.80
2022-11-14T03:15:07.224Z,19.45
2022-11-14T03:17:54.366Z,21.50
2022-11-14T03:20:41.489Z,15.68
2022-11-14T03:23:28.677Z,15.52
2022-11-14T03:26:16.590Z,18.40
2022-11-14T03:29:04.453Z,18.80
2022-11-14T03:31:51.326Z,16.85
2022-11-14T03:34:38.605Z,14.55
2022-11-14T03:37:25.740Z,15.70
2022-11-14T03:40:13.485Z,13.93
2022-11-14T03:43:00.863Z,14.88
2022-11-14T03:45:50.003Z,9.25
2022-11-14T03:48:37.554Z,10.05
2022-11-14T03:51:24.684Z,14.02
2022-11-14T03:54:11.572Z,15.20
2022-11-14T03:56:58.624Z,13.93
2022-11-14T03:59:45.679Z,13.90
2022-11-14T04:02:34.101Z,11.30
2022-11-14T04:05:21.001Z,11.75
2022-11-14T04:08:08.566Z,13.02
2022-11-14T04:10:55.448Z,13.60
2022-11-14T04:13:42.517Z,12.65
2022-11-14T04:16:29.743Z,10.90
2022-11-14T04:19:17.814Z,14.13
2022-11-14T04:22:04.658Z,12.48
2022-11-14T04:24:51.705Z,12.48
2022-11-14T04:27:38.822Z,15.85
2022-11-14T04:30:25.623Z,12.93
2022-11-14T04:33:13.264Z,14.73
2022-11-14T04:36:01.779Z,9.40
2022-11-14T04:38:48.524Z,10.45
2022-11-14T04:41:35.252Z,11.50
2022-11-14T04:44:22.077Z,10.05
2022-11-14T04:47:08.693Z,10.77
2022-11-14T04:49:55.498Z,13.38
2022-11-14T04:52:43.703Z,14.60
2022-11-14T04:55:30.715Z,14.55
2022-11-14T04:58:17.622Z,12.27
2022-11-14T05:01:09.312Z,10.88
2022-11-14T05:03:57.056Z,10.75
2022-11-14T05:06:44.204Z,11.13
2022-11-14T05:09:32.698Z,9.10
2022-11-14T05:12:20.086Z,9.32
2022-11-14T05:15:08.229Z,8.05
2022-11-14T05:17:55.313Z,7.97
2022-11-14T05:20:42.428Z,6.50
2022-11-14T05:23:29.444Z,4.85
2022-11-14T05:26:19.178Z,9.05
2022-11-14T05:29:05.877Z,10.13
2022-11-14T05:31:53.067Z,8.43
2022-11-14T05:34:39.950Z,10.20
2022-11-14T05:37:27.059Z,11.88
2022-11-14T05:40:13.924Z,11.05
2022-11-14T05:43:02.299Z,12.00
2022-11-14T05:45:49.394Z,12.20
2022-11-14T05:48:36.288Z,14.85
2022-11-14T05:51:23.036Z,16.02
2022-11-14T05:54:09.951Z,13.10
2022-11-14T05:56:56.807Z,14.82
2022-11-14T05:59:45.528Z,9.93
2022-11-14T06:02:32.773Z,16.45
2022-11-14T06:05:20.233Z,15.30
2022-11-14T06:08:06.772Z,15.15
2022-11-14T06:10:53.949Z,15.23
2022-11-14T06:13:41.096Z,13.18
2022-11-14T06:16:29.460Z,14.52
2022-11-14T06:19:16.340Z,12.95
2022-11-14T06:22:03.353Z,9.30
2022-11-14T06:24:50.125Z,12.63
2022-11-14T06:27:37.056Z,12.38
2022-11-14T06:30:24.041Z,12.00
2022-11-14T06:33:12.166Z,13.00
2022-11-14T06:36:00.192Z,12.20
2022-11-14T06:38:47.479Z,13.63
2022-11-14T06:41:35.654Z,12.73
2022-11-14T06:44:27.843Z,11.73
2022-11-14T06:47:17.313Z,11.40
2022-11-14T06:50:06.580Z,11.68
2022-11-14T06:52:53.918Z,10.95
2022-11-14T06:55:40.643Z,9.57
2022-11-14T06:58:28.969Z,10.38
2022-11-14T07:01:17.873Z,10.95
2022-11-14T07:04:04.966Z,9.75
2022-11-14T07:06:53.812Z,8.18
2022-11-14T07:09:40.950Z,9.20
2022-11-14T07:12:29.560Z,8.70
2022-11-14T07:15:16.617Z,10.98
2022-11-14T07:18:03.721Z,11.85
2022-11-14T07:20:51.002Z,10.02
2022-11-14T07:23:39.455Z,9.88
2022-11-14T07:26:26.950Z,8.40
2022-11-14T07:29:13.332Z,7.28
2022-11-14T07:32:00.383Z,4.05
2022-11-14T07:34:47.686Z,6.38
2022-11-14T07:37:35.061Z,7.07
2022-11-14T07:40:23.531Z,4.65
2022-11-14T07:43:10.312Z,5.93
2022-11-14T07:46:00.637Z,9.27
2022-11-14T07:51:34.771Z,7.38
2022-11-14T07:54:21.521Z,9.60
2022-11-14T07:57:09.709Z,8.43
2022-11-14T07:59:56.690Z,10.13
2022-11-14T08:02:43.527Z,4.07
2022-11-14T08:05:30.455Z,9.18
2022-11-14T08:08:17.380Z,4.72
2022-11-14T08:11:04.185Z,9.57
2022-11-14T08:13:52.645Z,7.43
2022-11-14T08:16:39.731Z,7.55
2022-11-14T08:19:26.472Z,6.88
2022-11-14T08:22:13.446Z,6.80
2022-11-14T08:25:00.362Z,8.02
2022-11-14T08:27:47.378Z,9.60
2022-11-14T08:30:36.139Z,8.65
2022-11-14T08:33:23.426Z,5.55
2022-11-14T08:36:11.762Z,9.35
2022-11-14T08:39:01.836Z,7.78
2022-11-14T08:41:49.438Z,9.77
2022-11-14T08:44:36.522Z,9.25
2022-11-14T08:47:25.097Z,7.63
2022-11-14T08:50:11.776Z,10.48
2022-11-14T08:52:58.846Z,7.88
2022-11-14T08:55:46.022Z,8.63
2022-11-14T08:58:33.905Z,7.03
2022-11-14T09:01:20.841Z,9.85
2022-11-14T09:04:09.298Z,9.25
2022-11-14T09:06:56.623Z,7.22
2022-11-14T09:09:44.309Z,8.02
2022-11-14T09:12:31.178Z,11.82
2022-11-14T09:15:17.996Z,11.88
2022-11-14T09:18:05.378Z,8.23
2022-11-14T09:20:53.849Z,9.20
2022-11-14T09:23:40.674Z,6.20
2022-11-14T09:26:27.561Z,7.38
2022-11-14T09:29:14.575Z,10.77
2022-11-14T09:32:01.383Z,6.43
2022-11-14T09:34:48.454Z,7.38
2022-11-14T09:37:36.911Z,8.88
2022-11-14T09:40:24.049Z,8.38
2022-11-14T09:43:21.068Z,5.93
2022-11-14T09:46:17.584Z,7.57
2022-11-14T09:49:04.619Z,5.45
2022-11-14T09:51:55.657Z,6.93
2022-11-14T09:54:48.163Z,8.05
2022-11-14T09:57:35.796Z,6.65
2022-11-14T10:00:24.581Z,6.25
2022-11-14T10:03:17.878Z,8.35
2022-11-14T10:06:15.911Z,11.27
2022-11-14T10:09:30.156Z,11.50
2022-11-14T10:12:23.980Z,13.57
2022-11-14T10:15:16.889Z,9.45
2022-11-14T10:18:22.184Z,12.35
2022-11-14T10:21:20.527Z,9.98
2022-11-14T10:24:18.300Z,10.07
2022-11-14T10:27:07.149Z,9.30
2022-11-14T10:30:05.919Z,9.45
2022-11-14T10:33:03.095Z,8.85
2022-11-14T10:35:54.619Z,7.85
2022-11-14T10:38:45.661Z,9.95
2022-11-14T10:41:56.214Z,8.98
2022-11-14T10:44:43.668Z,10.68
2022-11-14T10:47:37.318Z,8.25
2022-11-14T10:50:25.964Z,12.38
2022-11-14T10:53:20.108Z,13.02
2022-11-14T10:56:07.261Z,12.52
2022-11-14T10:58:54.163Z,14.07
2022-11-14T11:01:43.026Z,11.50
2022-11-14T11:04:33.147Z,11.02
2022-11-14T11:07:40.685Z,4.55
2022-11-14T11:10:45.484Z,7.82
2022-11-14T11:13:34.905Z,4.57
2022-11-14T11:16:24.071Z,7.65
2022-11-14T11:19:24.823Z,4.32
2022-11-14T11:22:29.130Z,6.65
2022-11-14T11:25:25.153Z,4.63
2022-11-14T11:28:14.868Z,8.07
2022-11-14T11:31:02.896Z,8.13
2022-11-14T11:33:50.209Z,6.03
2022-11-14T11:36:42.279Z,6.30
2022-11-14T11:39:31.885Z,6.43
2022-11-14T11:42:23.630Z,6.32
2022-11-14T11:45:17.544Z,6.03
2022-11-14T11:48:11.587Z,5.45
2022-11-14T11:50:58.909Z,6.20
2022-11-14T11:53:58.153Z,5.13
2022-11-14T11:56:48.773Z,6.60
2022-11-14T11:59:39.170Z,5.95
2022-11-14T12:02:27.962Z,6.45
2022-11-14T12:05:16.802Z,7.97
2022-11-14T12:08:07.534Z,9.25
2022-11-14T12:10:55.651Z,9.38
2022-11-14T12:14:04.916Z,11.15
2022-11-14T12:17:06.397Z,16.55
2022-11-14T12:20:14.056Z,18.60
2022-11-14T12:23:28.110Z,21.63
2022-11-14T12:26:26.509Z,22.38
2022-11-14T12:29:32.576Z,20.45
2022-11-14T12:32:31.512Z,22.17
2022-11-14T12:35:22.478Z,16.10
2022-11-14T12:38:17.730Z,13.77
2022-11-14T12:41:04.908Z,18.20
2022-11-14T12:43:52.370Z,16.45
2022-11-14T12:47:14.511Z,15.13
2022-11-14T12:50:30.074Z,13.38
2022-11-14T12:53:39.441Z,13.32
2022-11-14T12:56:55.941Z,20.10
2022-11-14T12:59:54.821Z,18.92
2022-11-14T13:03:06.045Z,15.30
2022-11-14T13:05:58.531Z,20.60
2022-11-14T13:09:03.047Z,22.00
2022-11-14T13:12:07.510Z,16.05
2022-11-14T13:15:13.405Z,23.77
2022-11-14T13:18:28.310Z,17.83
2022-11-14T13:21:44.738Z,16.25
2022-11-14T13:25:02.516Z,19.25
2022-11-14T13:28:07.216Z,21.13
2022-11-14T13:31:18.159Z,30.15
2022-11-14T13:37:20.323Z,22.35
2022-11-14T13:40:13.177Z,27.27
2022-11-14T13:43:09.215Z,24.60
2022-11-14T13:46:03.272Z,21.60
2022-11-14T13:49:05.128Z,25.90
2022-11-14T13:51:54.092Z,23.60
2022-11-14T13:54:49.304Z,22.30
2022-11-14T13:57:45.323Z,16.42
2022-11-14T14:00:49.360Z,21.40
2022-11-14T14:03:43.153Z,13.30
2022-11-14T14:06:40.923Z,23.90
2022-11-14T14:09:34.375Z,19.42
2022-11-14T14:12:42.184Z,14.52
2022-11-14T14:15:32.414Z,15.45
2022-11-14T14:21:17.811Z,10.97
2022-11-14T14:24:12.362Z,17.67
2022-11-14T14:27:05.023Z,17.65
2022-11-14T14:29:59.945Z,15.68
2022-11-14T14:33:12.282Z,17.23
2022-11-14T14:35:59.246Z,17.38
2022-11-14T14:38:46.561Z,22.05
2022-11-14T14:41:34.605Z,16.45
2022-11-14T14:44:25.382Z,16.80
2022-11-14T14:47:32.469Z,10.45
2022-11-14T14:50:21.687Z,10.50
2022-11-14T14:53:18.855Z,11.65
2022-11-14T14:56:08.899Z,9.63
2022-11-14T14:58:56.133Z,14.90
2022-11-14T15:01:42.891Z,15.07
2022-11-14T15:04:31.761Z,12.35
2022-11-14T15:07:21.824Z,18.60
2022-11-14T15:10:09.916Z,19.65
2022-11-14T15:12:57.509Z,16.17
2022-11-14T15:15:45.029Z,20.80
2022-11-14T15:18:33.589Z,21.55
2022-11-14T15:21:28.416Z,20.25
2022-11-14T15:24:17.259Z,18.52
2022-11-14T15:27:05.780Z,15.27
2022-11-14T15:29:54.869Z,14.18
2022-11-14T15:32:49.490Z,19.58
2022-11-14T15:35:38.058Z,16.48
2022-11-14T15:38:43.683Z,18.58
2022-11-14T15:41:31.980Z,11.95
2022-11-14T15:44:32.088Z,15.65
2022-11-14T15:47:23.858Z,12.50
2022-11-14T15:50:27.893Z,17.38
2022-11-14T15:53:24.377Z,21.45
2022-11-14T15:56:14.487Z,21.75
2022-11-14T15:59:02.557Z,21.83
2022-11-14T16:01:52.477Z,16.08
2022-11-14T16:04:46.003Z,14.30
2022-11-14T16:07:34.602Z,15.90
2022-11-14T16:13:13.579Z,23.20
2022-11-14T16:16:00.902Z,13.55
2022-11-14T16:18:48.095Z,16.00
2022-11-14T16:21:35.546Z,14.52
2022-11-14T16:24:24.338Z,18.85
2022-11-14T16:27:11.458Z,18.17
2022-11-14T16:29:59.727Z,13.88
2022-11-14T16:32:47.980Z,17.25
2022-11-14T16:35:34.877Z,15.73
2022-11-14T16:38:22.008Z,18.70
2022-11-14T16:41:09.033Z,17.67
2022-11-14T16:43:56.800Z,15.80
2022-11-14T16:46:45.853Z,18.92
2022-11-14T16:49:32.978Z,18.92
2022-11-14T16:52:20.173Z,17.63
2022-11-14T16:55:08.205Z,16.73
2022-11-14T16:57:55.432Z,21.20
2022-11-14T17:00:43.944Z,21.75
2022-11-14T17:03:34.204Z,15.32
2022-11-14T17:06:21.462Z,18.45
2022-11-14T17:09:08.884Z,14.80
2022-11-14T17:11:55.769Z,18.45
2022-11-14T17:14:42.643Z,13.25
2022-11-14T17:17:29.968Z,19.95
2022-11-14T17:20:18.655Z,15.43
2022-11-14T17:23:05.551Z,15.68
2022-11-14T17:25:53.491Z,12.95
2022-11-14T17:28:43.206Z,16.42
2022-11-14T17:31:35.038Z,12.40
2022-11-14T17:34:24.773Z,11.73
2022-11-14T17:37:13.431Z,20.20
2022-11-14T17:40:00.356Z,18.08
2022-11-14T17:42:47.387Z,14.68
2022-11-14T17:45:37.885Z,21.13
2022-11-14T17:48:27.975Z,22.70
2022-11-14T17:51:16.353Z,20.63
2022-11-14T17:54:05.011Z,11.77
2022-11-14T17:56:54.920Z,13.25
2022-11-14T17:59:42.419Z,18.27
2022-11-14T18:02:29.667Z,14.55
2022-11-14T18:05:17.366Z,20.80
2022-11-14T18:08:04.228Z,13.38
2022-11-14T18:10:53.360Z,20.23
2022-11-14T18:13:41.301Z,18.80
2022-11-14T18:16:44.470Z,18.27
2022-11-14T18:19:36.822Z,20.75
2022-11-14T18:22:24.287Z,18.00
2022-11-14T18:25:11.329Z,17.90
2022-11-14T18:27:59.616Z,22.45
2022-11-14T18:30:55.513Z,10.75
2022-11-14T18:33:42.943Z,22.05
2022-11-14T18:36:30.052Z,21.58
2022-11-14T18:39:17.087Z,21.73
2022-11-14T18:42:03.912Z,16.85
2022-11-14T18:44:52.133Z,18.27
2022-11-14T18:47:39.064Z,13.98
2022-11-14T18:50:26.163Z,13.55
2022-11-14T18:53:12.748Z,18.13
2022-11-14T18:55:59.877Z,20.73
2022-11-14T18:58:47.276Z,10.98
2022-11-14T19:01:36.072Z,23.30
2022-11-14T19:04:23.606Z,23.13
2022-11-14T19:07:11.056Z,20.25
2022-11-14T19:09:58.477Z,16.48
2022-11-14T19:12:48.278Z,18.48
2022-11-14T19:15:35.654Z,15.32
2022-11-14T19:18:24.045Z,12.23
2022-11-14T19:21:11.786Z,16.75
2022-11-14T19:23:59.608Z,23.55
2022-11-14T19:26:47.018Z,23.75
2022-11-14T19:29:34.007Z,26.05
2022-11-14T19:32:21.316Z,21.52
2022-11-14T19:35:13.614Z,23.27
2022-11-14T19:38:02.920Z,22.17
2022-11-14T19:40:51.186Z,17.92
2022-11-14T19:43:38.606Z,20.48
2022-11-14T19:46:27.360Z,21.33
2022-11-14T19:49:14.246Z,11.95
2022-11-14T19:52:03.062Z,20.67
2022-11-14T19:54:51.675Z,16.00
2022-11-14T19:57:38.801Z,20.73
2022-11-14T20:00:26.038Z,14.57
2022-11-14T20:03:13.401Z,20.70
2022-11-14T20:06:00.503Z,23.05
2022-11-14T20:08:49.357Z,17.73
2022-11-14T20:11:36.240Z,20.48
2022-11-14T20:14:23.068Z,11.18
2022-11-14T20:17:09.976Z,13.30
2022-11-14T20:19:56.827Z,11.02
2022-11-14T20:22:45.872Z,13.00
2022-11-14T20:25:36.386Z,18.83
2022-11-14T20:28:23.535Z,11.63
2022-11-14T20:31:13.212Z,12.68
2022-11-14T20:33:59.985Z,15.25
2022-11-14T20:37:09.780Z,17.52
2022-11-14T20:39:54.128Z,13.15
2022-11-14T20:42:42.786Z,18.90
2022-11-14T20:45:29.887Z,16.67
2022-11-14T20:48:16.760Z,13.93
2022-11-14T20:51:04.776Z,17.85
2022-11-14T20:53:53.185Z,18.08
2022-11-14T20:56:40.075Z,17.10
2022-11-14T20:59:28.183Z,16.10
2022-11-14T21:02:15.977Z,14.70
2022-11-14T21:05:03.579Z,14.07
2022-11-14T21:07:50.626Z,12.90
2022-11-14T21:10:47.801Z,16.13
2022-11-14T21:13:53.435Z,13.88
2022-11-14T21:16:42.056Z,13.68
2022-11-14T21:19:29.788Z,11.00
2022-11-14T21:22:17.015Z,9.48
2022-11-14T21:25:04.617Z,9.63
2022-11-14T21:27:51.386Z,13.38
2022-11-14T21:30:38.193Z,15.07
2022-11-14T21:33:26.705Z,14.38
2022-11-14T21:36:43.392Z,17.45
2022-11-14T21:39:25.672Z,14.07
2022-11-14T21:42:18.051Z,11.23
2022-11-14T21:45:06.114Z,19.35
2022-11-14T21:47:53.116Z,14.20
2022-11-14T21:50:41.635Z,12.60
2022-11-14T21:53:29.095Z,18.58
2022-11-14T21:56:17.945Z,14.50
2022-11-14T21:59:16.951Z,15.68
2022-11-14T22:02:21.724Z,15.25
2022-11-14T22:05:09.222Z,15.35
2022-11-14T22:07:57.798Z,15.40
2022-11-14T22:10:44.880Z,12.68
2022-11-14T22:13:32.679Z,20.70
2022-11-14T22:16:20.868Z,20.20
2022-11-14T22:19:08.073Z,16.40
2022-11-14T22:21:55.303Z,22.33
2022-11-14T22:24:43.954Z,19.77
2022-11-14T22:27:30.796Z,21.17
2022-11-14T22:30:17.765Z,20.88
2022-11-14T22:33:04.836Z,24.60
2022-11-14T22:35:51.952Z,24.33
2022-11-14T22:38:39.390Z,22.63
2022-11-14T22:41:32.192Z,13.90
2022-11-14T22:44:19.919Z,22.15
2022-11-14T22:47:07.036Z,16.60
2022-11-14T22:49:53.727Z,18.85
2022-11-14T22:52:40.436Z,16.15
2022-11-14T22:55:27.284Z,20.20
2022-11-14T22:58:15.362Z,21.38
2022-11-14T23:01:02.587Z,17.52
2022-11-14T23:03:52.148Z,22.15
2022-11-14T23:06:39.200Z,21.60
2022-11-14T23:09:27.239Z,21.58
2022-11-14T23:12:14.107Z,21.50
2022-11-14T23:15:02.430Z,19.73
2022-11-14T23:17:49.528Z,20.88
2022-11-14T23:20:37.122Z,23.23
2022-11-14T23:23:23.860Z,24.95
2022-11-14T23:26:11.687Z,14.75
2022-11-14T23:28:58.581Z,24.17
2022-11-14T23:31:46.828Z,25.15
2022-11-14T23:34:33.838Z,26.58
2022-11-14T23:37:20.922Z,29.98
2022-11-14T23:40:09.068Z,29.48
2022-11-14T23:42:55.942Z,24.52
2022-11-14T23:45:43.671Z,28.65
2022-11-14T23:48:32.180Z,29.90
2022-11-14T23:51:19.325Z,26.70
2022-11-14T23:54:06.197Z,31.95
2022-11-14T23:56:53.167Z,33.30
2022-11-14T23:59:40.145Z,22.52
